Time;durP1;ratioP1;P1;durP2;ratioP2;P2;SDS_P1;SDS_P2;PMS_P1;PMS_P2;Temp;Humidity;BMP_temperature;BMP_pressure;BME280_temperature;BME280_humidity;BME280_pressure;Samples;Min_cycle;Max_cycle;Signal;HPM_P1;HPM_P2
2022/04/11 00:00:21;;;;;;;2.83;2.22;;;1.40;99.90;;;;;;5012358;28;20477;-77
2022/04/11 00:02:47;;;;;;;2.92;2.10;;;1.40;99.90;;;;;;5012400;28;20026;-77
2022/04/11 00:05:13;;;;;;;4.47;2.00;;;1.40;99.90;;;;;;5012456;28;20350;-77
2022/04/11 00:07:38;;;;;;;3.38;1.92;;;1.30;99.90;;;;;;5012317;28;20076;-77
2022/04/11 00:10:04;;;;;;;3.22;2.00;;;1.30;99.90;;;;;;4995423;28;20027;-75
2022/04/11 00:12:34;;;;;;;2.38;1.92;;;1.30;99.90;;;;;;4992812;28;20456;-75
2022/04/11 00:15:00;;;;;;;4.20;2.43;;;1.30;99.90;;;;;;4992474;28;20497;-75
2022/04/11 00:17:26;;;;;;;5.03;2.15;;;1.20;99.90;;;;;;4992034;28;20317;-75
2022/04/11 00:19:52;;;;;;;3.33;2.33;;;1.20;99.90;;;;;;4992838;28;20093;-75
2022/04/11 00:22:17;;;;;;;3.55;2.05;;;1.20;99.90;;;;;;4992512;28;20745;-75
2022/04/11 00:24:43;;;;;;;1.77;1.55;;;1.20;99.90;;;;;;4992413;28;20474;-75
2022/04/11 00:27:09;;;;;;;3.80;2.08;;;1.10;99.90;;;;;;4992495;28;20033;-75
2022/04/11 00:29:35;;;;;;;2.83;1.88;;;1.10;99.90;;;;;;4992714;28;20023;-75
2022/04/11 00:32:01;;;;;;;2.25;1.67;;;1.10;99.90;;;;;;4992271;28;20406;-75
2022/04/11 00:34:26;;;;;;;3.53;2.05;;;1.10;99.90;;;;;;4992472;28;20389;-75
2022/04/11 00:36:52;;;;;;;3.22;1.95;;;1.10;99.90;;;;;;4992142;28;20027;-74
2022/04/11 00:39:18;;;;;;;2.05;1.70;;;1.10;99.90;;;;;;4992242;28;20100;-75
2022/04/11 00:41:43;;;;;;;2.58;1.85;;;1.10;99.90;;;;;;4992205;28;20029;-75
2022/04/11 00:44:09;;;;;;;3.35;1.83;;;1.10;99.90;;;;;;4992471;28;20037;-75
2022/04/11 00:46:35;;;;;;;1.95;1.70;;;1.10;99.90;;;;;;4992117;28;20109;-75
2022/04/11 00:49:00;;;;;;;3.78;1.67;;;1.10;99.90;;;;;;4992396;28;20034;-74
2022/04/11 00:51:26;;;;;;;3.28;1.92;;;1.00;99.90;;;;;;4992186;28;20034;-74
2022/04/11 00:53:55;;;;;;;2.40;2.00;;;1.10;99.90;;;;;;4992446;28;20422;-75
2022/04/11 00:56:21;;;;;;;3.20;2.00;;;1.00;99.90;;;;;;4991981;28;20022;-75
2022/04/11 00:58:47;;;;;;;3.50;1.77;;;1.10;99.90;;;;;;4992341;28;20068;-74
2022/04/11 01:01:14;;;;;;;2.55;1.80;;;1.10;99.90;;;;;;4992356;28;20030;-73
2022/04/11 01:03:40;;;;;;;2.97;1.63;;;1.10;99.90;;;;;;4992031;28;20170;-74
2022/04/11 01:06:07;;;;;;;2.10;1.88;;;1.10;99.90;;;;;;4992272;28;20050;-73
2022/04/11 01:08:34;;;;;;;2.17;1.98;;;1.10;99.90;;;;;;4991999;28;20556;-74
2022/04/11 01:11:02;;;;;;;2.20;1.80;;;1.20;99.90;;;;;;4992014;28;20508;-73
2022/04/11 01:13:28;;;;;;;1.80;1.50;;;1.20;99.90;;;;;;4991863;28;20042;-74
2022/04/11 01:16:00;;;;;;;3.10;2.00;;;1.10;99.90;;;;;;4992175;28;20054;-73
2022/04/11 01:18:26;;;;;;;2.92;1.65;;;1.10;99.90;;;;;;4991898;28;20026;-73
2022/04/11 01:20:53;;;;;;;2.00;1.83;;;1.10;99.90;;;;;;4992091;28;20536;-74
2022/04/11 01:23:19;;;;;;;2.78;1.80;;;1.10;99.90;;;;;;4991825;28;20631;-75
2022/04/11 01:25:52;;;;;;;2.38;1.50;;;1.10;99.90;;;;;;4992252;28;20437;-75
2022/04/11 01:28:19;;;;;;;2.53;1.83;;;1.20;99.90;;;;;;4992683;28;20096;-75
2022/04/11 01:30:46;;;;;;;3.28;1.90;;;1.20;99.90;;;;;;4995539;28;20058;-74
2022/04/11 01:33:29;;;;;;;3.83;1.80;;;1.20;99.90;;;;;;4995191;28;20038;-75
2022/04/11 01:35:55;;;;;;;2.55;1.80;;;1.20;99.90;;;;;;4995314;28;20042;-75
2022/04/11 01:38:21;;;;;;;1.50;1.40;;;1.20;99.90;;;;;;4995103;28;20042;-75
2022/04/11 01:40:54;;;;;;;2.50;1.80;;;1.20;99.90;;;;;;4995288;28;20446;-75
2022/04/11 01:43:21;;;;;;;2.45;1.80;;;1.20;99.90;;;;;;4995020;28;20031;-75
2022/04/11 01:45:47;;;;;;;1.98;1.60;;;1.20;99.90;;;;;;4995116;28;20030;-75
2022/04/11 01:48:12;;;;;;;2.50;1.60;;;1.20;99.90;;;;;;4995149;28;20030;-75
2022/04/11 01:50:38;;;;;;;2.42;1.83;;;1.20;99.90;;;;;;4995061;28;20026;-75
2022/04/11 01:53:24;;;;;;;3.58;1.80;;;1.20;99.90;;;;;;4994654;28;20486;-77
2022/04/11 01:55:50;;;;;;;1.60;1.50;;;1.20;99.90;;;;;;4994798;28;20034;-76
2022/04/11 01:58:16;;;;;;;5.45;1.88;;;1.20;99.90;;;;;;4994895;28;20034;-76
2022/04/11 02:00:42;;;;;;;2.20;1.73;;;1.20;99.90;;;;;;4994885;28;20497;-76
2022/04/11 02:03:09;;;;;;;2.38;1.60;;;1.20;99.90;;;;;;4994608;28;20061;-76
2022/04/11 02:05:35;;;;;;;2.08;1.60;;;1.20;99.90;;;;;;4994671;28;20034;-76
2022/04/11 02:08:03;;;;;;;2.05;1.48;;;1.20;99.90;;;;;;4994599;28;20027;-76
2022/04/11 02:10:29;;;;;;;1.67;1.58;;;1.10;99.90;;;;;;4994697;28;20062;-77
2022/04/11 02:12:55;;;;;;;2.13;1.60;;;1.10;99.90;;;;;;4994710;28;20030;-76
2022/04/11 02:15:20;;;;;;;1.77;1.65;;;1.10;99.90;;;;;;4994399;28;20037;-77
2022/04/11 02:17:46;;;;;;;3.30;1.80;;;1.10;99.90;;;;;;4994763;28;20042;-77
2022/04/11 02:20:13;;;;;;;1.85;1.40;;;1.10;99.90;;;;;;4994466;28;20034;-76
2022/04/11 02:22:49;;;;;;;1.90;1.60;;;1.10;99.90;;;;;;4994402;28;20130;-77
2022/04/11 02:54:18;;;;;;;2.88;1.60;;;0.70;99.90;;;;;;4993102;28;20077;-77
2022/04/11 02:56:44;;;;;;;1.80;1.60;;;0.60;99.90;;;;;;4996491;28;20061;-78
2022/04/11 02:59:09;;;;;;;1.50;1.35;;;0.60;99.90;;;;;;4993988;28;20087;-76
2022/04/11 03:01:35;;;;;;;1.60;1.50;;;0.60;99.90;;;;;;4994083;28;20466;-76
2022/04/11 03:37:41;;;;;;;2.10;1.70;;;0.50;99.90;;;;;;5620866;23;20124;-86
2022/04/11 03:40:07;;;;;;;2.15;1.45;;;0.40;99.90;;;;;;4992991;28;20485;-90
2022/04/11 03:42:33;;;;;;;1.88;1.70;;;0.40;99.90;;;;;;4993460;28;20109;-90
2022/04/11 03:44:59;;;;;;;1.90;1.60;;;0.40;99.90;;;;;;4993862;28;20112;-90
2022/04/11 03:47:24;;;;;;;1.67;1.42;;;0.40;99.90;;;;;;4993727;28;20026;-89
2022/04/11 03:49:50;;;;;;;2.40;1.65;;;0.30;99.90;;;;;;4993819;28;20037;-91
2022/04/11 03:52:16;;;;;;;2.55;1.67;;;0.20;99.90;;;;;;4993434;28;20029;-91
2022/04/11 03:54:41;;;;;;;1.75;1.63;;;0.20;99.90;;;;;;4993721;28;20501;-91
2022/04/11 03:57:07;;;;;;;2.58;1.60;;;0.20;99.90;;;;;;4993720;28;20101;-91
2022/04/11 03:59:33;;;;;;;2.28;1.70;;;0.30;99.90;;;;;;4993208;28;20048;-91
2022/04/11 04:01:58;;;;;;;2.13;1.58;;;0.30;99.90;;;;;;4993496;28;20022;-90
2022/04/11 04:04:24;;;;;;;1.95;1.60;;;0.30;99.90;;;;;;4994038;28;20026;-87
2022/04/11 04:06:50;;;;;;;2.55;1.52;;;0.30;99.90;;;;;;4976340;28;20026;-88
2022/04/11 04:09:16;;;;;;;1.60;1.50;;;0.30;99.90;;;;;;4993317;28;20551;-85
2022/04/11 04:11:42;;;;;;;2.30;1.30;;;0.30;99.90;;;;;;4993006;28;20027;-89
2022/04/11 04:14:07;;;;;;;2.30;1.60;;;0.30;99.90;;;;;;4975562;28;20031;-88
2022/04/11 04:16:33;;;;;;;1.38;1.27;;;0.30;99.90;;;;;;4993215;28;20069;-86
2022/04/11 04:18:59;;;;;;;1.40;1.30;;;0.30;99.90;;;;;;4993486;28;20053;-90
2022/04/11 04:21:24;;;;;;;2.42;1.42;;;0.30;99.90;;;;;;4992617;28;20026;-83
2022/04/11 04:23:50;;;;;;;2.20;1.80;;;0.30;99.90;;;;;;4992383;28;20030;-82
2022/04/11 04:26:16;;;;;;;1.70;1.50;;;0.30;99.90;;;;;;4992518;28;20030;-86
2022/04/11 04:28:41;;;;;;;2.28;1.45;;;0.30;99.90;;;;;;4992652;28;20485;-84
2022/04/11 04:31:07;;;;;;;1.50;1.38;;;0.30;99.90;;;;;;4993084;28;20154;-84
2022/04/11 04:33:33;;;;;;;1.92;1.33;;;0.40;99.90;;;;;;4992049;28;20390;-72
2022/04/11 04:35:58;;;;;;;1.52;1.20;;;0.40;99.90;;;;;;4992507;28;20034;-69
2022/04/11 04:38:24;;;;;;;1.55;1.30;;;0.40;99.90;;;;;;4991910;28;20038;-67
2022/04/11 04:40:50;;;;;;;2.88;1.48;;;0.40;99.90;;;;;;4992135;28;20034;-67
2022/04/11 04:43:15;;;;;;;3.83;1.42;;;0.60;99.90;;;;;;4992239;28;20019;-71
2022/04/11 04:45:41;;;;;;;1.40;1.30;;;0.90;99.90;;;;;;4992005;28;20047;-79
2022/04/11 04:48:07;;;;;;;2.25;1.60;;;1.40;99.90;;;;;;4991964;28;20030;-75
2022/04/11 04:50:33;;;;;;;16.25;6.80;;;1.70;99.90;;;;;;4977390;28;20034;-80
2022/04/11 04:52:58;;;;;;;4.85;3.03;;;2.00;99.90;;;;;;5010809;28;20034;-75
2022/04/11 04:55:24;;;;;;;2.65;1.50;;;2.10;99.90;;;;;;5011027;28;20022;-72
2022/04/11 04:57:50;;;;;;;9.68;5.25;;;2.20;99.90;;;;;;5006318;28;20109;-72
2022/04/11 05:00:16;;;;;;;13.98;7.00;;;2.40;99.90;;;;;;5006423;28;20484;-81
2022/04/11 05:02:43;;;;;;;7.55;3.65;;;2.40;99.90;;;;;;5012389;28;20021;-75
2022/04/11 05:05:10;;;;;;;5.60;3.75;;;2.50;99.90;;;;;;5014818;28;20654;-76
2022/04/11 05:07:36;;;;;;;3.22;2.40;;;2.60;99.90;;;;;;4996261;28;20084;-76
2022/04/11 05:10:04;;;;;;;2.90;2.60;;;2.80;99.90;;;;;;5008978;28;20017;-76
2022/04/11 05:12:44;;;;;;;3.22;1.73;;;3.30;99.90;;;;;;5009342;28;20026;-77
2022/04/11 05:15:11;;;;;;;1.90;1.80;;;3.90;99.90;;;;;;4996891;28;20188;-77
2022/04/11 05:17:37;;;;;;;1.38;1.20;;;4.30;99.90;;;;;;4997012;28;20379;-77
2022/04/11 05:20:05;;;;;;;1.52;1.30;;;4.80;99.90;;;;;;5014638;28;20515;-76
2022/04/11 05:22:31;;;;;;;2.53;1.30;;;5.30;99.90;;;;;;5015003;28;20378;-73
2022/04/11 05:24:56;;;;;;;2.22;2.00;;;5.70;99.90;;;;;;5014990;28;20167;-75
2022/04/11 05:27:22;;;;;;;1.58;1.48;;;6.00;99.90;;;;;;5014521;28;20057;-75
2022/04/11 05:29:48;;;;;;;2.00;1.20;;;6.30;99.90;;;;;;5008907;28;20027;-77
2022/04/11 05:32:14;;;;;;;1.00;0.90;;;6.80;99.90;;;;;;5002442;28;20037;-75
2022/04/11 05:34:39;;;;;;;0.95;0.85;;;7.10;99.90;;;;;;5014535;28;20522;-77
2022/04/11 05:37:06;;;;;;;1.00;0.90;;;7.70;99.90;;;;;;5014839;28;20048;-77
2022/04/11 05:39:31;;;;;;;0.95;0.90;;;7.80;99.90;;;;;;5014922;28;20114;-78
2022/04/11 05:41:57;;;;;;;0.82;0.82;;;8.00;99.90;;;;;;5015059;28;20101;-78
2022/04/11 05:44:23;;;;;;;1.10;1.00;;;8.10;99.90;;;;;;5014729;28;20026;-78
2022/04/11 05:46:52;;;;;;;1.48;0.90;;;8.30;98.90;;;;;;5014758;28;20404;-78
2022/04/11 05:49:22;;;;;;;0.95;0.95;;;8.40;96.50;;;;;;5014588;28;20026;-78
2022/04/11 05:51:48;;;;;;;0.80;0.80;;;8.60;95.50;;;;;;5014458;28;20260;-78
2022/04/11 05:54:14;;;;;;;1.98;0.90;;;8.70;94.90;;;;;;4996830;28;20129;-78
2022/04/11 05:56:40;;;;;;;0.80;0.80;;;8.90;93.90;;;;;;5014286;28;20477;-77
2022/04/11 05:59:08;;;;;;;0.93;0.90;;;9.10;92.90;;;;;;5014751;28;20029;-83
2022/04/11 06:01:34;;;;;;;1.23;0.80;;;9.20;92.10;;;;;;5014229;28;20029;-78
2022/04/11 06:04:00;;;;;;;0.77;0.70;;;9.60;99.90;;;;;;5001493;28;20057;-83
2022/04/11 06:06:26;;;;;;;0.70;0.70;;;10.20;99.90;;;;;;4994649;28;20018;-73
2022/04/11 06:08:52;;;;;;;0.80;0.80;;;10.30;87.20;;;;;;4994566;28;20026;-73
2022/04/11 06:11:17;;;;;;;1.48;0.70;;;10.20;84.30;;;;;;4994342;28;20037;-72
2022/04/11 06:13:45;;;;;;;0.73;0.70;;;10.10;84.10;;;;;;4993408;28;20038;-78
2022/04/11 06:16:11;;;;;;;0.80;0.80;;;10.10;82.90;;;;;;4994462;28;20018;-83
2022/04/11 06:18:37;;;;;;;0.95;0.80;;;10.10;82.40;;;;;;4994302;28;20026;-83
2022/04/11 06:21:03;;;;;;;0.88;0.73;;;10.10;81.50;;;;;;5005251;28;20025;-79
2022/04/11 06:23:29;;;;;;;0.70;0.60;;;10.00;80.70;;;;;;5013858;28;20030;-76
2022/04/11 06:25:54;;;;;;;1.00;0.90;;;10.00;81.30;;;;;;4995927;28;20031;-77
2022/04/11 06:28:20;;;;;;;12.32;1.70;;;10.10;80.90;;;;;;4994127;28;20138;-68
2022/04/11 06:30:46;;;;;;;1.08;0.63;;;10.10;87.20;;;;;;4994433;28;20036;-70
2022/04/11 06:33:12;;;;;;;2.40;1.15;;;10.40;92.30;;;;;;4993861;28;20042;-69
2022/04/11 06:35:37;;;;;;;1.80;0.70;;;10.70;90.30;;;;;;4993937;28;20046;-66
2022/04/11 06:38:03;;;;;;;0.70;0.65;;;10.90;87.20;;;;;;4993842;28;20133;-66
2022/04/11 06:40:29;;;;;;;1.35;0.80;;;11.00;88.60;;;;;;4993862;28;20392;-66
2022/04/11 06:42:55;;;;;;;0.50;0.50;;;11.10;83.90;;;;;;4999854;28;20072;-73
2022/04/11 06:45:20;;;;;;;1.75;0.70;;;11.10;81.70;;;;;;5013439;28;20110;-72
2022/04/11 06:47:48;;;;;;;0.68;0.50;;;10.90;78.40;;;;;;5013290;28;20101;-74
2022/04/11 06:50:14;;;;;;;0.80;0.80;;;10.60;78.30;;;;;;5012562;28;20096;-73
2022/04/11 06:52:40;;;;;;;2.35;0.60;;;10.50;78.10;;;;;;5012460;28;20026;-72
2022/04/11 06:55:06;;;;;;;0.55;0.47;;;10.30;78.30;;;;;;5013367;28;20379;-72
2022/04/11 06:57:32;;;;;;;0.50;0.50;;;10.20;78.70;;;;;;5013316;28;20026;-71
2022/04/11 06:59:58;;;;;;;0.70;0.70;;;10.20;78.70;;;;;;5012219;28;20511;-70
2022/04/11 07:02:24;;;;;;;0.80;0.70;;;10.10;78.60;;;;;;5013073;28;20026;-69
2022/04/11 07:04:49;;;;;;;0.60;0.60;;;10.00;78.40;;;;;;5012420;28;20029;-70
2022/04/11 07:07:15;;;;;;;0.88;0.57;;;10.00;79.10;;;;;;5012408;28;20026;-70
2022/04/11 07:09:41;;;;;;;1.48;0.75;;;10.00;78.70;;;;;;5012931;28;20475;-70
2022/04/11 07:12:07;;;;;;;0.73;0.68;;;10.00;78.40;;;;;;5012881;28;20065;-69
2022/04/11 07:14:33;;;;;;;0.95;0.50;;;10.00;78.20;;;;;;4996342;28;20535;-69
2022/04/11 07:16:59;;;;;;;0.77;0.50;;;10.00;76.90;;;;;;4993615;28;20066;-70
2022/04/11 07:19:24;;;;;;;0.73;0.60;;;9.90;77.80;;;;;;4993208;28;20386;-71
2022/04/11 07:21:50;;;;;;;0.60;0.60;;;9.90;77.70;;;;;;4993306;28;20026;-73
2022/04/11 07:24:16;;;;;;;0.85;0.60;;;9.80;78.00;;;;;;5005506;28;20026;-72
2022/04/11 07:26:41;;;;;;;0.50;0.50;;;9.70;77.30;;;;;;5012949;28;20033;-74
2022/04/11 07:29:09;;;;;;;2.28;0.52;;;9.50;77.90;;;;;;5009655;28;20025;-69
2022/04/11 07:31:35;;;;;;;0.60;0.60;;;9.40;78.10;;;;;;5011346;28;20018;-69
2022/04/11 07:34:01;;;;;;;0.85;0.60;;;9.30;78.70;;;;;;5011887;28;20034;-69
2022/04/11 07:36:30;;;;;;;0.50;0.50;;;9.30;78.40;;;;;;4992597;28;20409;-69
2022/04/11 07:38:57;;;;;;;0.68;0.68;;;9.20;78.10;;;;;;4992607;28;20084;-69
2022/04/11 07:41:23;;;;;;;0.70;0.50;;;9.20;78.90;;;;;;5008997;28;20033;-71
2022/04/11 07:43:50;;;;;;;0.60;0.60;;;9.10;78.40;;;;;;4994773;28;20028;-71
2022/04/11 07:46:16;;;;;;;4.88;0.70;;;9.10;78.10;;;;;;5012422;28;20029;-71
2022/04/11 07:48:41;;;;;;;1.10;0.50;;;8.90;78.40;;;;;;5009344;28;20114;-72
2022/04/11 07:51:07;;;;;;;0.95;0.50;;;9.10;83.40;;;;;;5011898;28;20084;-74
2022/04/11 07:53:34;;;;;;;0.60;0.60;;;9.00;80.20;;;;;;5011725;28;20050;-72
2022/04/11 07:55:59;;;;;;;0.50;0.50;;;9.10;81.40;;;;;;5012275;28;20033;-70
2022/04/11 07:58:25;;;;;;;1.08;0.60;;;9.10;83.40;;;;;;5012165;28;20021;-70
2022/04/11 08:00:52;;;;;;;0.40;0.40;;;9.10;86.60;;;;;;4994722;28;20385;-70
2022/04/11 08:03:18;;;;;;;0.57;0.52;;;8.90;79.20;;;;;;5012225;28;20018;-70
2022/04/11 08:05:44;;;;;;;0.50;0.50;;;8.50;78.40;;;;;;5011965;28;20037;-70
2022/04/11 08:08:10;;;;;;;1.05;0.65;;;8.10;77.90;;;;;;5012139;28;20366;-70
2022/04/11 08:11:14;;;;;;;0.80;0.52;;;7.90;79.20;;;;;;4994393;28;20075;-70
2022/04/11 08:13:46;;;;;;;0.60;0.60;;;7.80;78.50;;;;;;5011886;28;20136;-70
2022/04/11 08:16:12;;;;;;;0.55;0.55;;;7.60;79.30;;;;;;5012304;28;20101;-70
2022/04/11 08:18:38;;;;;;;0.98;0.70;;;7.70;80.20;;;;;;5011931;28;20056;-70
2022/04/11 08:21:04;;;;;;;0.63;0.57;;;7.70;79.60;;;;;;5011971;28;20462;-70
2022/04/11 08:23:30;;;;;;;1.35;0.50;;;7.60;79.90;;;;;;5011086;28;20022;-70
2022/04/11 08:25:57;;;;;;;0.65;0.60;;;7.60;80.30;;;;;;5011816;28;20033;-70
2022/04/11 08:28:23;;;;;;;1.13;0.70;;;7.60;79.90;;;;;;5012072;28;20025;-70
2022/04/11 08:30:49;;;;;;;0.75;0.40;;;7.50;78.80;;;;;;5010970;28;20068;-70
2022/04/11 08:33:15;;;;;;;0.50;0.50;;;7.40;78.40;;;;;;5011733;28;20030;-70
2022/04/11 08:35:41;;;;;;;0.63;0.50;;;7.40;78.00;;;;;;5011750;28;20038;-70
2022/04/11 08:38:07;;;;;;;0.40;0.40;;;7.30;75.30;;;;;;4996103;28;20052;-70
2022/04/11 08:40:33;;;;;;;0.40;0.40;;;7.10;71.90;;;;;;5015723;28;20503;-70
2022/04/11 08:42:59;;;;;;;0.75;0.50;;;6.90;70.70;;;;;;5015865;28;20224;-70
2022/04/11 08:45:28;;;;;;;0.55;0.55;;;6.70;69.80;;;;;;5015753;28;20026;-70
2022/04/11 08:47:56;;;;;;;0.80;0.50;;;6.60;71.80;;;;;;5015979;28;20045;-70
2022/04/11 08:50:22;;;;;;;0.85;0.50;;;6.50;71.70;;;;;;5015644;28;20092;-70
2022/04/11 08:52:50;;;;;;;0.60;0.60;;;6.50;71.80;;;;;;5015736;28;20033;-70
2022/04/11 08:55:15;;;;;;;0.60;0.60;;;6.40;71.90;;;;;;5015658;28;20470;-69
2022/04/11 08:57:41;;;;;;;0.50;0.50;;;6.40;72.20;;;;;;5015418;28;20088;-70
2022/04/11 09:00:12;;;;;;;0.40;0.40;;;6.30;71.30;;;;;;5015363;28;20473;-70
2022/04/11 09:02:38;;;;;;;;;;;6.10;71.80;;;;;;4998125;28;20065;-70
2022/04/11 09:05:04;;;;;;;0.50;0.50;;;6.20;72.10;;;;;;5015306;28;19949;-70
2022/04/11 09:07:56;;;;;;;0.80;0.60;;;6.20;72.70;;;;;;5015386;28;20091;-70
2022/04/11 09:10:32;;;;;;;0.47;0.47;;;6.20;72.60;;;;;;5015183;28;20400;-70
2022/04/11 09:13:03;;;;;;;0.80;0.80;;;6.20;72.70;;;;;;5015198;28;20119;-70
2022/04/11 09:15:36;;;;;;;0.50;0.50;;;6.20;72.40;;;;;;5015021;28;20107;-70
2022/04/11 09:18:03;;;;;;;0.95;0.50;;;6.20;71.80;;;;;;5015161;28;20026;-70
2022/04/11 09:20:30;;;;;;;0.40;0.40;;;6.10;71.50;;;;;;5014792;28;20034;-70
2022/04/11 09:22:56;;;;;;;0.40;0.40;;;6.10;71.90;;;;;;5014551;28;20424;-70
2022/04/11 09:25:24;;;;;;;0.40;0.40;;;6.10;71.60;;;;;;5014308;28;20061;-70
2022/04/11 09:28:11;;;;;;;0.50;0.50;;;6.00;71.70;;;;;;5014692;28;20084;-70
2022/04/11 09:30:43;;;;;;;0.60;0.60;;;6.00;72.20;;;;;;5014554;28;20124;-70
2022/04/11 09:33:10;;;;;;;0.60;0.60;;;6.00;72.40;;;;;;5015051;28;20049;-70
2022/04/11 09:35:49;;;;;;;0.55;0.55;;;6.00;71.20;;;;;;5014769;28;20101;-69
2022/04/11 09:38:16;;;;;;;0.50;0.50;;;6.10;80.20;;;;;;5015965;28;20050;-71
2022/04/11 09:40:45;;;;;;;1.85;0.80;;;7.10;91.80;;;;;;5013674;28;20692;-68
2022/04/11 09:43:12;;;;;;;0.45;0.45;;;7.50;89.40;;;;;;5013736;28;20116;-69
2022/04/11 09:45:42;;;;;;;0.55;0.50;;;7.30;77.80;;;;;;5014457;28;20030;-68
2022/04/11 09:48:09;;;;;;;0.50;0.50;;;7.10;77.00;;;;;;5014638;28;20105;-68
2022/04/11 09:50:35;;;;;;;0.60;0.60;;;7.00;76.90;;;;;;5013473;28;20036;-69
2022/04/11 09:53:11;;;;;;;0.50;0.50;;;6.90;76.30;;;;;;5014109;28;20105;-68
2022/04/11 09:55:39;;;;;;;0.68;0.60;;;6.80;77.10;;;;;;5013225;28;20091;-69
2022/04/11 09:58:06;;;;;;;0.40;0.40;;;6.80;81.60;;;;;;5014128;28;20022;-69
2022/04/11 10:00:51;;;;;;;0.52;0.52;;;6.90;78.50;;;;;;5013541;28;20024;-68
2022/04/11 10:03:20;;;;;;;0.50;0.50;;;6.90;77.40;;;;;;5017763;28;20052;-71
2022/04/11 10:05:46;;;;;;;0.50;0.50;;;6.90;76.10;;;;;;5014575;28;20446;-71
2022/04/11 10:08:15;;;;;;;0.93;0.50;;;6.90;75.50;;;;;;5008498;28;20034;-71
2022/04/11 10:10:42;;;;;;;0.60;0.50;;;6.90;74.30;;;;;;5013120;28;20076;-71
2022/04/11 10:13:11;;;;;;;0.50;0.50;;;6.80;72.30;;;;;;5013995;28;20033;-73
2022/04/11 10:15:38;;;;;;;0.50;0.50;;;6.70;73.90;;;;;;5013315;28;20479;-68
2022/04/11 10:18:06;;;;;;;0.50;0.50;;;6.70;72.90;;;;;;5013785;28;20022;-69
2022/04/11 10:20:38;;;;;;;0.43;0.43;;;6.70;72.60;;;;;;5013966;28;20045;-70
2022/04/11 10:23:13;;;;;;;0.60;0.60;;;6.70;73.30;;;;;;5013956;28;20032;-70
2022/04/11 10:25:50;;;;;;;0.57;0.57;;;6.70;74.40;;;;;;5013787;28;20075;-71
2022/04/11 10:28:16;;;;;;;1.27;0.50;;;6.70;73.80;;;;;;5009514;28;20469;-70
2022/04/11 10:30:43;;;;;;;1.05;0.60;;;6.80;73.20;;;;;;5013350;28;20026;-70
2022/04/11 10:33:09;;;;;;;0.40;0.40;;;6.80;73.40;;;;;;5013243;28;20033;-73
2022/04/11 10:35:45;;;;;;;7.32;0.63;;;6.80;74.20;;;;;;5013615;28;20034;-71
2022/04/11 10:38:12;;;;;;;0.50;0.50;;;6.90;73.70;;;;;;5013361;28;20078;-69
2022/04/11 10:40:46;;;;;;;0.50;0.50;;;6.80;73.10;;;;;;5012951;28;20037;-69
2022/04/11 10:43:15;;;;;;;0.60;0.50;;;6.80;73.20;;;;;;4998342;28;20034;-70
2022/04/11 10:45:44;;;;;;;0.50;0.50;;;6.90;72.80;;;;;;4993708;28;20026;-70
2022/04/11 10:48:13;;;;;;;0.50;0.50;;;6.90;72.90;;;;;;4993988;28;20519;-71
2022/04/11 10:50:43;;;;;;;4.00;0.60;;;6.90;72.50;;;;;;4993686;28;20034;-71
2022/04/11 10:53:23;;;;;;;2.40;0.50;;;6.90;72.50;;;;;;4993650;28;20030;-71
2022/04/11 10:56:08;;;;;;;0.50;0.50;;;6.80;73.10;;;;;;4998720;28;20105;-72
2022/04/11 10:58:52;;;;;;;0.50;0.50;;;6.80;72.80;;;;;;5010667;28;20033;-72
2022/04/11 11:01:45;;;;;;;0.40;0.40;;;6.80;73.30;;;;;;5007887;28;20063;-70
2022/04/11 11:04:18;;;;;;;0.63;0.50;;;6.90;72.60;;;;;;5001131;28;20034;-71
2022/04/11 11:06:44;;;;;;;4.80;0.63;;;6.90;72.90;;;;;;5012355;28;20112;-71
2022/04/11 11:09:17;;;;;;;1.85;0.57;;;6.90;73.50;;;;;;5012453;28;20587;-70
2022/04/11 11:11:48;;;;;;;0.30;0.30;;;6.90;72.40;;;;;;4989699;28;20064;-70
2022/04/11 11:14:39;;;;;;;;;;;6.90;71.90;;;;;;5010970;28;20033;-71
2022/04/11 11:17:05;;;;;;;1.25;0.90;;;6.90;71.60;;;;;;5013294;28;19963;-71
2022/04/11 11:19:31;;;;;;;0.40;0.40;;;6.90;72.30;;;;;;5013200;28;20022;-73
2022/04/11 11:21:58;;;;;;;1.08;0.50;;;6.90;72.40;;;;;;5012716;28;20045;-71
2022/04/11 11:24:24;;;;;;;0.40;0.40;;;6.90;70.10;;;;;;5011582;28;20079;-72
2022/04/11 11:26:53;;;;;;;0.93;0.50;;;6.90;71.20;;;;;;5011416;28;20029;-73
2022/04/11 11:29:31;;;;;;;2.40;0.50;;;6.90;72.50;;;;;;5012577;28;20076;-74
2022/04/11 11:31:57;;;;;;;0.40;0.40;;;6.90;72.30;;;;;;5011132;28;20208;-72
2022/04/11 11:34:26;;;;;;;1.08;0.50;;;6.90;72.80;;;;;;5012138;28;20065;-71
2022/04/11 11:36:56;;;;;;;0.50;0.50;;;6.90;72.50;;;;;;5008440;28;20025;-71
2022/04/11 11:39:24;;;;;;;0.40;0.40;;;6.90;72.40;;;;;;5012344;28;20132;-71
2022/04/11 11:41:52;;;;;;;4.40;0.70;;;6.90;72.10;;;;;;5012077;28;20033;-71
2022/04/11 11:44:19;;;;;;;0.40;0.40;;;6.80;73.30;;;;;;5011271;28;20022;-71
2022/04/11 11:46:46;;;;;;;0.40;0.40;;;6.90;73.80;;;;;;5011683;28;20029;-70
2022/04/11 11:49:12;;;;;;;1.27;0.50;;;6.90;72.00;;;;;;5011307;28;20033;-70
2022/04/11 11:51:38;;;;;;;0.40;0.40;;;6.90;71.90;;;;;;5007912;28;20014;-70
2022/04/11 11:54:04;;;;;;;3.40;0.50;;;6.90;71.20;;;;;;5011751;28;20029;-66
2022/04/11 11:56:46;;;;;;;0.60;0.40;;;6.90;77.50;;;;;;5012380;28;20030;-68
2022/04/11 11:59:12;;;;;;;12.43;0.98;;;8.20;93.20;;;;;;5012219;28;20430;-75
2022/04/11 12:01:39;;;;;;;1.75;0.55;;;8.20;76.90;;;;;;5012020;28;20033;-72
2022/04/11 12:04:21;;;;;;;0.38;0.38;;;7.90;74.40;;;;;;4994403;28;20030;-74
2022/04/11 12:06:54;;;;;;;1.58;0.40;;;7.60;73.50;;;;;;5011192;28;20489;-73
2022/04/11 12:09:20;;;;;;;1.33;0.40;;;7.50;72.50;;;;;;4975026;28;20043;-73
2022/04/11 12:11:46;;;;;;;0.40;0.40;;;7.30;71.90;;;;;;4991825;28;20058;-73
2022/04/11 12:14:12;;;;;;;0.52;0.40;;;7.20;71.70;;;;;;4992335;28;20057;-73
2022/04/11 12:16:54;;;;;;;1.45;0.43;;;7.20;72.20;;;;;;4996912;28;20436;-73
2022/04/11 12:19:30;;;;;;;0.50;0.50;;;7.20;72.00;;;;;;5008657;28;20038;-73
2022/04/11 12:22:09;;;;;;;2.53;0.40;;;7.20;71.40;;;;;;4992377;28;20081;-73
2022/04/11 12:24:35;;;;;;;0.75;0.47;;;7.10;71.30;;;;;;4992631;28;20025;-73
2022/04/11 12:27:01;;;;;;;0.77;0.60;;;7.10;71.00;;;;;;4992361;28;20385;-76
2022/04/11 12:29:27;;;;;;;3.28;0.40;;;7.50;99.90;;;;;;5010463;28;20057;-73
2022/04/11 12:31:57;;;;;;;0.65;0.40;;;8.50;83.00;;;;;;5009031;28;20026;-74
2022/04/11 12:34:36;;;;;;;0.40;0.40;;;8.00;71.70;;;;;;4994937;28;20038;-74
2022/04/11 12:37:05;;;;;;;0.40;0.40;;;7.70;70.60;;;;;;5003708;28;20495;-74
2022/04/11 12:39:32;;;;;;;0.40;0.40;;;7.40;71.60;;;;;;4994228;28;20053;-74
2022/04/11 12:41:58;;;;;;;0.52;0.52;;;7.30;71.30;;;;;;5011750;28;20024;-75
2022/04/11 12:44:36;;;;;;;0.32;0.32;;;7.20;71.30;;;;;;5011693;28;20022;-75
2022/04/11 12:47:02;;;;;;;0.40;0.40;;;7.10;71.10;;;;;;5011735;28;20050;-75
2022/04/11 12:49:43;;;;;;;0.43;0.40;;;7.10;72.40;;;;;;5011805;28;20029;-77
2022/04/11 12:52:09;;;;;;;0.40;0.40;;;7.40;80.00;;;;;;5011419;28;20049;-74
2022/04/11 12:54:40;;;;;;;1.50;0.40;;;7.40;74.00;;;;;;5011380;28;20034;-73
2022/04/11 12:57:08;;;;;;;0.40;0.40;;;7.30;72.10;;;;;;5011739;28;20464;-74
2022/04/11 12:59:36;;;;;;;0.52;0.45;;;7.20;74.40;;;;;;5011820;28;20033;-73
2022/04/11 13:02:17;;;;;;;0.50;0.50;;;8.40;96.40;;;;;;5011530;28;20045;-73
2022/04/11 13:04:54;;;;;;;0.63;0.40;;;8.40;75.20;;;;;;5011418;28;20030;-73
2022/04/11 13:07:25;;;;;;;2.17;0.40;;;8.00;71.70;;;;;;5009328;28;20034;-73
2022/04/11 13:09:51;;;;;;;;;;;7.80;71.90;;;;;;4992289;28;20436;-73
2022/04/11 13:12:18;;;;;;;0.40;0.40;;;7.60;71.90;;;;;;4992175;28;19940;-74
2022/04/11 13:14:45;;;;;;;0.90;0.47;;;7.50;71.70;;;;;;4991777;28;20062;-73
2022/04/11 13:20:01;;;;;;;0.50;0.50;;;7.30;71.70;;;;;;4957079;28;20061;-73
2022/04/11 13:22:27;;;;;;;0.55;0.45;;;7.20;71.20;;;;;;4991919;28;20027;-73
2022/04/11 13:24:55;;;;;;;0.47;0.47;;;7.10;72.00;;;;;;5011676;28;20053;-73
2022/04/11 13:27:22;;;;;;;0.40;0.40;;;7.10;71.40;;;;;;5015295;28;20037;-73
2022/04/11 13:29:49;;;;;;;0.50;0.50;;;7.10;71.90;;;;;;5014885;28;20409;-73
2022/04/11 13:32:15;;;;;;;0.40;0.40;;;7.10;72.10;;;;;;5015051;28;20033;-74
2022/04/11 13:34:41;;;;;;;0.40;0.40;;;7.10;72.40;;;;;;5014880;28;20137;-73
2022/04/11 13:37:07;;;;;;;1.45;0.40;;;7.10;71.60;;;;;;5014774;28;20046;-73
2022/04/11 13:39:34;;;;;;;0.60;0.43;;;7.00;72.00;;;;;;5014359;28;20042;-73
2022/04/11 13:42:00;;;;;;;0.40;0.40;;;7.10;72.30;;;;;;5014826;28;20025;-73
2022/04/11 13:44:26;;;;;;;0.65;0.50;;;7.00;70.90;;;;;;5014941;28;20032;-73
2022/04/11 13:46:53;;;;;;;0.60;0.60;;;7.00;71.40;;;;;;5014860;28;20388;-73
2022/04/11 13:49:20;;;;;;;0.47;0.47;;;7.00;71.30;;;;;;5014824;28;20018;-73
2022/04/11 13:51:46;;;;;;;1.20;0.40;;;7.00;70.90;;;;;;5014195;28;20030;-71
2022/04/11 13:54:13;;;;;;;0.50;0.50;;;7.00;72.10;;;;;;5014282;28;20040;-70
2022/04/11 13:56:42;;;;;;;0.40;0.40;;;7.00;71.00;;;;;;5014485;28;20030;-70
2022/04/11 13:59:13;;;;;;;0.40;0.40;;;6.90;70.80;;;;;;5013998;28;20543;-70
2022/04/11 14:01:41;;;;;;;0.40;0.40;;;6.90;70.10;;;;;;5014279;28;20026;-69
2022/04/11 14:04:07;;;;;;;2.45;0.50;;;6.80;70.80;;;;;;5014229;28;20126;-69
2022/04/11 14:06:34;;;;;;;0.40;0.40;;;6.80;71.20;;;;;;5014337;28;20414;-69